createdAt,value
2023-03-29T00:02:02.665Z,5.50
2023-03-29T00:04:29.554Z,5.50
2023-03-29T00:06:56.370Z,5.63
2023-03-29T00:09:26.484Z,5.56
2023-03-29T00:11:53.121Z,5.56
2023-03-29T00:14:19.985Z,5.63
2023-03-29T00:16:47.090Z,5.56
2023-03-29T00:19:13.806Z,5.69
2023-03-29T00:21:40.857Z,5.63
2023-03-29T00:24:07.539Z,5.63
2023-03-29T00:26:34.135Z,5.69
2023-03-29T00:29:00.737Z,5.69
2023-03-29T00:31:27.527Z,5.63
2023-03-29T00:33:54.394Z,5.69
2023-03-29T00:36:22.190Z,5.69
2023-03-29T00:38:49.124Z,5.69
2023-03-29T00:41:16.299Z,5.69
2023-03-29T00:44:00.667Z,5.69
2023-03-29T00:46:29.787Z,5.75
2023-03-29T00:49:07.293Z,5.69
2023-03-29T00:51:39.514Z,5.75
2023-03-29T00:54:10.489Z,5.75
2023-03-29T00:56:41.436Z,5.75
2023-03-29T00:59:22.802Z,5.75
2023-03-29T01:01:57.798Z,5.81
2023-03-29T01:04:29.314Z,5.81
2023-03-29T01:07:03.100Z,5.88
2023-03-29T01:09:34.694Z,5.88
2023-03-29T01:12:08.448Z,5.94
2023-03-29T01:14:41.746Z,6.00
2023-03-29T01:17:08.665Z,6.00
2023-03-29T01:19:43.978Z,6.06
2023-03-29T01:22:19.565Z,6.13
2023-03-29T01:25:26.214Z,6.19
2023-03-29T01:28:02.531Z,6.19
2023-03-29T01:30:46.592Z,6.38
2023-03-29T01:33:21.619Z,6.31
2023-03-29T01:36:11.684Z,6.38
2023-03-29T01:39:04.973Z,6.50
2023-03-29T01:41:49.452Z,6.50
2023-03-29T01:44:28.907Z,6.50
2023-03-29T01:47:25.047Z,6.50
2023-03-29T01:49:57.058Z,6.63
2023-03-29T01:52:55.041Z,6.63
2023-03-29T01:55:33.871Z,6.63
2023-03-29T01:58:04.401Z,6.63
2023-03-29T02:00:34.851Z,6.69
2023-03-29T02:03:09.016Z,6.63
2023-03-29T02:05:39.765Z,6.63
2023-03-29T02:08:09.199Z,6.63
2023-03-29T02:10:36.919Z,6.63
2023-03-29T02:13:04.700Z,6.63
2023-03-29T02:15:31.308Z,6.56
2023-03-29T02:17:58.142Z,6.63
2023-03-29T02:20:30.228Z,6.63
2023-03-29T02:23:23.101Z,6.56
2023-03-29T02:25:53.508Z,6.63
2023-03-29T02:28:25.433Z,6.56
2023-03-29T02:31:11.558Z,6.56
2023-03-29T02:33:57.147Z,6.63
2023-03-29T02:36:33.990Z,6.63
2023-03-29T02:39:05.875Z,6.63
2023-03-29T02:41:34.694Z,6.63
2023-03-29T02:44:04.734Z,6.56
2023-03-29T02:46:31.589Z,6.63
2023-03-29T02:49:00.149Z,6.63
2023-03-29T02:51:32.178Z,6.63
2023-03-29T02:54:11.645Z,6.63
2023-03-29T02:56:48.146Z,6.63
2023-03-29T02:59:17.579Z,6.56
2023-03-29T03:01:44.832Z,6.63
2023-03-29T03:04:13.154Z,6.63
2023-03-29T03:06:40.459Z,6.63
2023-03-29T03:09:07.641Z,6.63
2023-03-29T03:11:34.371Z,6.63
2023-03-29T03:14:01.018Z,6.56
2023-03-29T03:16:28.045Z,6.56
2023-03-29T03:18:55.573Z,6.56
2023-03-29T03:21:23.072Z,6.56
2023-03-29T03:23:50.064Z,6.50
2023-03-29T03:26:18.169Z,6.44
2023-03-29T03:28:48.365Z,6.50
2023-03-29T03:31:15.016Z,6.50
2023-03-29T03:33:41.895Z,6.56
2023-03-29T03:36:11.144Z,6.56
2023-03-29T03:38:38.681Z,6.56
2023-03-29T03:41:09.684Z,6.56
2023-03-29T03:43:36.320Z,6.56
2023-03-29T03:46:03.235Z,6.56
2023-03-29T03:48:30.046Z,6.56
2023-03-29T03:50:59.083Z,6.56
2023-03-29T03:53:27.248Z,6.56
2023-03-29T03:55:58.054Z,6.56
2023-03-29T03:58:24.700Z,6.63
2023-03-29T04:00:51.548Z,6.56
2023-03-29T04:03:18.884Z,6.63
2023-03-29T04:05:47.207Z,6.63
2023-03-29T04:08:14.863Z,6.63
2023-03-29T04:10:41.758Z,6.63
2023-03-29T04:13:08.430Z,6.63
2023-03-29T04:15:38.732Z,6.69
2023-03-29T04:18:07.222Z,6.69
2023-03-29T04:20:34.638Z,6.63
2023-03-29T04:23:01.809Z,6.69
2023-03-29T04:25:28.545Z,6.69
2023-03-29T04:27:56.034Z,6.69
2023-03-29T04:30:23.345Z,6.63
2023-03-29T04:32:49.984Z,6.69
2023-03-29T04:35:16.634Z,6.69
2023-03-29T04:37:43.582Z,6.69
2023-03-29T04:40:19.371Z,6.69
2023-03-29T04:42:47.212Z,6.69
2023-03-29T04:45:17.932Z,6.69
2023-03-29T04:47:45.705Z,6.63
2023-03-29T04:50:13.836Z,6.69
2023-03-29T04:52:40.875Z,6.69
2023-03-29T04:55:08.685Z,6.69
2023-03-29T04:57:35.462Z,6.75
2023-03-29T05:00:07.616Z,6.75
2023-03-29T05:02:34.289Z,6.75
2023-03-29T05:05:00.931Z,6.75
2023-03-29T05:07:27.822Z,6.75
2023-03-29T05:09:54.409Z,6.88
2023-03-29T05:12:21.058Z,6.88
2023-03-29T05:14:47.677Z,6.81
2023-03-29T05:17:14.337Z,6.81
2023-03-29T05:19:41.370Z,6.81
2023-03-29T05:22:08.951Z,6.88
2023-03-29T05:24:36.113Z,6.94
2023-03-29T05:27:02.731Z,6.94
2023-03-29T05:29:29.398Z,6.94
2023-03-29T05:31:56.000Z,6.94
2023-03-29T05:34:22.656Z,6.94
2023-03-29T05:36:49.245Z,6.94
2023-03-29T05:39:15.902Z,6.94
2023-03-29T05:41:42.539Z,7.00
2023-03-29T05:44:09.359Z,7.00
2023-03-29T05:46:36.039Z,7.06
2023-03-29T05:49:02.857Z,7.06
2023-03-29T05:51:29.521Z,7.06
2023-03-29T05:53:56.196Z,7.13
2023-03-29T05:56:22.788Z,7.13
2023-03-29T05:58:49.504Z,7.13
2023-03-29T06:01:18.061Z,7.13
2023-03-29T06:03:46.218Z,7.13
2023-03-29T06:06:16.493Z,7.19
2023-03-29T06:08:44.243Z,7.19
2023-03-29T06:11:13.410Z,7.25
2023-03-29T06:13:41.415Z,7.31
2023-03-29T06:16:10.152Z,7.31
2023-03-29T06:18:40.126Z,7.38
2023-03-29T06:21:09.159Z,7.38
2023-03-29T06:23:36.491Z,7.38
2023-03-29T06:26:04.097Z,7.44
2023-03-29T06:28:30.694Z,7.50
2023-03-29T06:31:02.729Z,7.50
2023-03-29T06:33:30.849Z,7.56
2023-03-29T06:35:57.998Z,7.56
2023-03-29T06:38:28.308Z,7.63
2023-03-29T06:41:03.966Z,7.69
2023-03-29T06:43:33.317Z,7.75
2023-03-29T06:46:00.694Z,7.75
2023-03-29T06:48:27.390Z,7.81
2023-03-29T06:50:54.577Z,7.81
2023-03-29T06:53:22.021Z,7.88
2023-03-29T06:55:51.802Z,7.94
2023-03-29T06:58:18.625Z,7.94
2023-03-29T07:00:45.873Z,7.94
2023-03-29T07:03:20.008Z,8.00
2023-03-29T07:05:47.643Z,7.94
2023-03-29T07:08:16.492Z,8.00
2023-03-29T07:10:47.361Z,8.06
2023-03-29T07:13:15.476Z,8.19
2023-03-29T07:15:44.145Z,8.19
2023-03-29T07:18:12.584Z,8.31
2023-03-29T07:20:40.463Z,8.38
2023-03-29T07:23:09.363Z,8.44
2023-03-29T07:25:37.365Z,8.44
2023-03-29T07:28:04.579Z,8.44
2023-03-29T07:30:32.686Z,8.56
2023-03-29T07:32:59.786Z,8.50
2023-03-29T07:35:27.440Z,8.56
2023-03-29T07:37:55.752Z,8.63
2023-03-29T07:40:23.824Z,8.63
2023-03-29T07:42:53.083Z,8.63
2023-03-29T07:45:26.664Z,8.69
2023-03-29T07:47:58.121Z,8.75
2023-03-29T07:50:26.176Z,8.88
2023-03-29T07:52:53.178Z,8.94
2023-03-29T07:55:19.898Z,9.00
2023-03-29T07:57:46.454Z,9.06
2023-03-29T08:00:17.154Z,9.13
2023-03-29T08:02:45.902Z,9.06
2023-03-29T08:05:15.449Z,9.19
2023-03-29T08:07:47.033Z,9.13
2023-03-29T08:10:17.037Z,9.25
2023-03-29T08:12:45.879Z,9.25
2023-03-29T08:15:13.369Z,9.25
2023-03-29T08:17:40.795Z,9.25
2023-03-29T08:20:11.003Z,9.25
2023-03-29T08:22:38.230Z,9.44
2023-03-29T08:25:06.178Z,9.50
2023-03-29T08:27:33.535Z,9.50
2023-03-29T08:30:00.189Z,9.56
2023-03-29T08:32:26.999Z,9.63
2023-03-29T08:34:53.687Z,9.63
2023-03-29T08:37:20.800Z,9.75
2023-03-29T08:39:48.421Z,9.75
2023-03-29T08:42:14.987Z,9.88
2023-03-29T08:45:00.072Z,9.81
2023-03-29T08:47:46.688Z,9.88
2023-03-29T08:50:15.047Z,9.81
2023-03-29T08:52:57.566Z,10.00
2023-03-29T08:55:40.213Z,10.06
2023-03-29T08:58:17.800Z,9.94
2023-03-29T09:00:50.816Z,9.94
2023-03-29T09:03:34.267Z,9.94
2023-03-29T09:06:07.772Z,9.94
2023-03-29T09:08:47.510Z,10.06
2023-03-29T09:11:32.134Z,10.13
2023-03-29T09:14:32.963Z,10.13
2023-03-29T09:17:10.037Z,10.13
2023-03-29T09:19:46.894Z,10.19
2023-03-29T09:22:23.294Z,10.19
2023-03-29T09:24:56.384Z,10.25
2023-03-29T09:27:26.475Z,10.25
2023-03-29T09:30:26.975Z,10.31
2023-03-29T09:32:58.553Z,10.44
2023-03-29T09:35:38.533Z,10.50
2023-03-29T09:38:10.935Z,10.50
2023-03-29T09:41:16.533Z,10.75
2023-03-29T09:43:45.830Z,10.69
2023-03-29T09:46:38.070Z,10.75
2023-03-29T09:49:12.460Z,10.81
2023-03-29T09:51:42.385Z,11.00
2023-03-29T09:54:12.422Z,10.94
2023-03-29T09:56:39.556Z,10.94
2023-03-29T09:59:07.216Z,10.63
2023-03-29T10:01:39.690Z,10.75
2023-03-29T10:04:08.720Z,10.75
2023-03-29T10:06:37.536Z,10.75
2023-03-29T10:09:04.589Z,10.81
2023-03-29T10:11:37.045Z,10.88
2023-03-29T10:14:12.269Z,10.94
2023-03-29T10:16:46.252Z,10.94
2023-03-29T10:19:18.821Z,11.13
2023-03-29T10:21:48.973Z,11.38
2023-03-29T10:24:21.277Z,11.19
2023-03-29T10:26:55.591Z,11.44
2023-03-29T10:29:25.659Z,11.44
2023-03-29T10:31:52.958Z,11.56
2023-03-29T10:34:25.276Z,11.63
2023-03-29T10:36:58.888Z,11.75
2023-03-29T10:39:32.443Z,11.63
2023-03-29T10:42:00.488Z,11.88
2023-03-29T10:44:32.957Z,11.75
2023-03-29T10:47:19.556Z,11.50
2023-03-29T10:49:57.251Z,11.69
2023-03-29T10:52:24.985Z,11.31
2023-03-29T10:54:55.855Z,11.31
2023-03-29T10:57:44.756Z,11.31
2023-03-29T11:00:39.785Z,11.38
2023-03-29T11:03:21.977Z,11.25
2023-03-29T11:06:02.930Z,11.38
2023-03-29T11:08:58.215Z,11.38
2023-03-29T11:12:04.438Z,11.38
2023-03-29T11:15:12.676Z,11.25
2023-03-29T11:18:00.911Z,10.81
2023-03-29T11:21:10.665Z,10.94
2023-03-29T11:24:21.989Z,11.13
2023-03-29T11:27:09.344Z,10.94
2023-03-29T11:29:53.395Z,11.00
2023-03-29T11:32:28.991Z,11.00
2023-03-29T11:35:06.011Z,11.00
2023-03-29T11:37:58.172Z,11.06
2023-03-29T11:40:27.898Z,11.19
2023-03-29T11:42:58.077Z,11.31
2023-03-29T11:45:39.848Z,11.44
2023-03-29T11:48:16.493Z,11.44
2023-03-29T11:50:56.116Z,11.38
2023-03-29T11:53:37.062Z,11.38
2023-03-29T11:56:14.406Z,11.69
2023-03-29T11:58:50.355Z,11.75
2023-03-29T12:01:34.646Z,11.81
2023-03-29T12:04:12.835Z,12.00
2023-03-29T12:06:53.247Z,12.06
2023-03-29T12:09:31.689Z,12.06
2023-03-29T12:12:28.381Z,12.00
2023-03-29T12:15:10.749Z,11.81
2023-03-29T12:18:06.916Z,11.81
2023-03-29T12:20:39.550Z,11.88
2023-03-29T12:23:08.548Z,11.81
2023-03-29T12:26:00.548Z,12.06
2023-03-29T12:28:46.013Z,12.00
2023-03-29T12:31:47.331Z,11.81
2023-03-29T12:34:35.280Z,11.75
2023-03-29T12:37:32.102Z,11.69
2023-03-29T12:40:13.485Z,11.56
2023-03-29T12:42:58.193Z,11.44
2023-03-29T12:45:39.975Z,11.63
2023-03-29T12:48:08.546Z,11.44
2023-03-29T12:50:48.897Z,11.50
2023-03-29T12:53:23.230Z,11.50
2023-03-29T12:55:55.014Z,11.50
2023-03-29T12:59:01.357Z,11.44
2023-03-29T13:01:34.520Z,11.56
2023-03-29T13:04:01.394Z,11.75
2023-03-29T13:06:35.368Z,11.69
2023-03-29T13:09:23.120Z,11.75
2023-03-29T13:11:55.460Z,11.75
2023-03-29T13:14:30.066Z,11.75
2023-03-29T13:17:18.237Z,11.88
2023-03-29T13:20:29.879Z,12.13
2023-03-29T13:23:18.823Z,12.25
2023-03-29T13:26:08.134Z,12.13
2023-03-29T13:29:16.281Z,12.06
2023-03-29T13:31:58.018Z,12.06
2023-03-29T13:34:35.306Z,12.00
2023-03-29T13:37:36.547Z,12.25
2023-03-29T13:40:43.986Z,12.00
2023-03-29T13:43:23.465Z,12.25
2023-03-29T13:45:59.211Z,12.25
2023-03-29T13:48:35.038Z,12.44
2023-03-29T13:51:08.295Z,12.56
2023-03-29T13:53:46.272Z,12.50
2023-03-29T13:56:19.989Z,12.63
2023-03-29T13:58:53.349Z,12.75
2023-03-29T14:01:31.569Z,12.88
2023-03-29T14:03:59.528Z,12.75
2023-03-29T14:06:38.384Z,12.69
2023-03-29T14:09:09.137Z,12.88
2023-03-29T14:11:36.578Z,12.81
2023-03-29T14:14:07.041Z,13.00
2023-03-29T14:16:38.610Z,13.06
2023-03-29T14:19:15.481Z,12.94
2023-03-29T14:21:44.195Z,12.88
2023-03-29T14:24:16.625Z,13.00
2023-03-29T14:26:46.326Z,13.00
2023-03-29T14:29:12.998Z,12.94
2023-03-29T14:31:41.896Z,13.00
2023-03-29T14:34:16.764Z,13.13
2023-03-29T14:36:54.040Z,13.13
2023-03-29T14:39:23.343Z,13.13
2023-03-29T14:41:59.572Z,13.31
2023-03-29T14:44:31.820Z,13.50
2023-03-29T14:46:59.778Z,13.56
2023-03-29T14:49:27.104Z,13.56
2023-03-29T14:51:55.126Z,13.69
2023-03-29T14:54:26.999Z,13.56
2023-03-29T14:56:54.451Z,13.81
2023-03-29T14:59:25.721Z,13.88
2023-03-29T15:01:52.996Z,13.75
2023-03-29T15:04:19.758Z,13.94
2023-03-29T15:06:47.045Z,13.81
2023-03-29T15:09:26.917Z,14.00
2023-03-29T15:11:56.527Z,13.94
2023-03-29T15:14:27.953Z,14.13
2023-03-29T15:17:03.144Z,14.06
2023-03-29T15:19:30.933Z,13.94
2023-03-29T15:21:58.819Z,14.06
2023-03-29T15:24:32.768Z,14.00
2023-03-29T15:27:11.248Z,14.06
2023-03-29T15:29:42.098Z,14.06
2023-03-29T15:32:11.526Z,14.00
2023-03-29T15:34:38.472Z,14.19
2023-03-29T15:37:05.219Z,14.13
2023-03-29T15:39:32.359Z,14.13
2023-03-29T15:41:59.206Z,14.06
2023-03-29T15:44:33.473Z,13.94
2023-03-29T15:47:00.342Z,14.06
2023-03-29T15:49:27.484Z,14.06
2023-03-29T15:51:55.121Z,14.06
2023-03-29T15:54:22.508Z,14.06
2023-03-29T15:56:55.202Z,14.06
2023-03-29T15:59:22.870Z,14.06
2023-03-29T16:01:49.956Z,14.06
2023-03-29T16:04:21.676Z,14.13
2023-03-29T16:06:52.787Z,14.13
2023-03-29T16:09:21.395Z,14.19
2023-03-29T16:11:49.342Z,14.19
2023-03-29T16:14:27.254Z,14.25
2023-03-29T16:16:58.535Z,14.19
2023-03-29T16:19:26.938Z,14.25
2023-03-29T16:21:54.776Z,14.25
2023-03-29T16:24:24.121Z,14.25
2023-03-29T16:26:54.748Z,14.13
2023-03-29T16:29:22.813Z,14.19
2023-03-29T16:31:50.515Z,14.19
2023-03-29T16:34:18.743Z,14.19
2023-03-29T16:36:49.489Z,14.13
2023-03-29T16:39:18.076Z,14.13
2023-03-29T16:41:48.370Z,14.06
2023-03-29T16:44:23.624Z,14.00
2023-03-29T16:46:52.625Z,13.88
2023-03-29T16:49:19.507Z,13.75
2023-03-29T16:51:47.428Z,13.75
2023-03-29T16:54:15.544Z,13.75
2023-03-29T16:56:42.260Z,13.81
2023-03-29T16:59:09.335Z,13.75
2023-03-29T17:01:36.656Z,13.75
2023-03-29T17:04:04.173Z,13.63
2023-03-29T17:06:32.491Z,13.63
2023-03-29T17:08:59.326Z,13.69
2023-03-29T17:11:26.866Z,13.69
2023-03-29T17:13:53.985Z,13.63
2023-03-29T17:16:21.106Z,13.69
2023-03-29T17:18:47.862Z,13.63
2023-03-29T17:21:14.563Z,13.69
2023-03-29T17:23:41.379Z,13.63
2023-03-29T17:26:08.462Z,13.56
2023-03-29T17:28:35.796Z,13.50
2023-03-29T17:31:07.807Z,13.50
2023-03-29T17:33:36.045Z,13.56
2023-03-29T17:36:04.130Z,13.56
2023-03-29T17:38:34.097Z,13.63
2023-03-29T17:41:02.677Z,13.50
2023-03-29T17:43:29.320Z,13.44
2023-03-29T17:45:56.290Z,13.38
2023-03-29T17:48:23.834Z,13.44
2023-03-29T17:50:50.647Z,13.38
2023-03-29T17:53:17.245Z,13.31
2023-03-29T17:55:43.892Z,13.31
2023-03-29T17:58:10.999Z,13.25
2023-03-29T18:00:37.968Z,13.19
2023-03-29T18:03:04.624Z,13.13
2023-03-29T18:05:31.355Z,13.13
2023-03-29T18:07:58.109Z,13.13
2023-03-29T18:10:24.783Z,13.06
2023-03-29T18:12:51.716Z,12.94
2023-03-29T18:15:19.179Z,13.00
2023-03-29T18:17:45.968Z,13.00
2023-03-29T18:20:13.503Z,12.88
2023-03-29T18:22:44.094Z,12.94
2023-03-29T18:25:11.185Z,12.81
2023-03-29T18:27:39.298Z,12.75
2023-03-29T18:30:08.677Z,12.69
2023-03-29T18:32:36.137Z,12.63
2023-03-29T18:35:03.240Z,12.56
2023-03-29T18:37:29.923Z,12.50
2023-03-29T18:39:56.915Z,12.56
2023-03-29T18:42:23.706Z,12.56
2023-03-29T18:44:51.152Z,12.56
2023-03-29T18:47:18.343Z,12.44
2023-03-29T18:49:45.074Z,12.44
2023-03-29T18:52:11.846Z,12.44
2023-03-29T18:54:38.810Z,12.38
2023-03-29T18:57:05.603Z,12.44
2023-03-29T18:59:32.349Z,12.50
2023-03-29T19:01:58.955Z,12.44
2023-03-29T19:04:27.220Z,12.44
2023-03-29T19:06:55.553Z,12.44
2023-03-29T19:09:22.806Z,12.44
2023-03-29T19:11:49.448Z,12.38
2023-03-29T19:14:17.393Z,12.38
2023-03-29T19:16:44.093Z,12.38
2023-03-29T19:19:11.015Z,12.38
2023-03-29T19:21:38.513Z,12.38
2023-03-29T19:24:07.654Z,12.25
2023-03-29T19:26:34.402Z,12.25
2023-03-29T19:29:01.454Z,12.38
2023-03-29T19:31:28.250Z,12.25
2023-03-29T19:33:55.182Z,12.25
2023-03-29T19:36:22.166Z,12.31
2023-03-29T19:38:48.739Z,12.31
2023-03-29T19:41:15.331Z,12.31
2023-03-29T19:43:41.893Z,12.38
2023-03-29T19:46:10.988Z,12.25
2023-03-29T19:48:39.366Z,12.25
2023-03-29T19:51:06.713Z,12.25
2023-03-29T19:53:37.164Z,12.25
2023-03-29T19:56:07.577Z,12.25
2023-03-29T19:58:34.402Z,12.25
2023-03-29T20:01:01.222Z,12.25
2023-03-29T20:03:28.390Z,12.25
2023-03-29T20:05:56.495Z,12.31
2023-03-29T20:08:24.834Z,12.31
2023-03-29T20:11:03.939Z,12.25
2023-03-29T20:13:38.315Z,12.25
2023-03-29T20:16:14.971Z,12.25
2023-03-29T20:18:44.732Z,12.31
2023-03-29T20:21:19.194Z,12.19
2023-03-29T20:23:46.071Z,12.25
2023-03-29T20:26:12.968Z,12.25
2023-03-29T20:28:39.682Z,12.31
2023-03-29T20:31:08.947Z,12.25
2023-03-29T20:33:35.624Z,12.31
2023-03-29T20:36:02.465Z,12.19
2023-03-29T20:38:29.242Z,12.31
2023-03-29T20:40:55.837Z,12.38
2023-03-29T20:43:22.570Z,12.25
2023-03-29T20:45:52.522Z,12.44
2023-03-29T20:48:23.050Z,12.44
2023-03-29T20:50:51.327Z,12.56
2023-03-29T20:53:20.207Z,12.56
2023-03-29T20:55:47.809Z,12.63
2023-03-29T20:58:15.724Z,12.69
2023-03-29T21:00:42.595Z,12.81
2023-03-29T21:03:09.895Z,12.81
2023-03-29T21:05:36.922Z,12.75
2023-03-29T21:08:04.404Z,12.75
2023-03-29T21:10:31.569Z,12.81
2023-03-29T21:13:00.457Z,12.75
2023-03-29T21:15:30.446Z,12.75
2023-03-29T21:17:57.387Z,12.94
2023-03-29T21:20:24.274Z,12.94
2023-03-29T21:22:51.110Z,12.88
2023-03-29T21:25:17.781Z,12.75
2023-03-29T21:27:44.431Z,12.75
2023-03-29T21:30:11.429Z,12.81
2023-03-29T21:32:38.077Z,12.81
2023-03-29T21:35:05.209Z,12.75
2023-03-29T21:37:31.827Z,12.75
2023-03-29T21:39:58.462Z,12.88
2023-03-29T21:42:25.142Z,12.88
2023-03-29T21:44:51.759Z,12.81
2023-03-29T21:47:18.389Z,12.81
2023-03-29T21:49:45.396Z,12.75
2023-03-29T21:52:12.019Z,12.75
2023-03-29T21:54:38.611Z,12.69
2023-03-29T21:57:05.288Z,12.63
2023-03-29T21:59:31.947Z,12.56
2023-03-29T22:01:58.631Z,12.69
2023-03-29T22:04:36.071Z,12.56
2023-03-29T22:07:05.027Z,12.56
2023-03-29T22:09:34.886Z,12.50
2023-03-29T22:12:01.735Z,12.63
2023-03-29T22:14:30.182Z,12.50
2023-03-29T22:16:56.976Z,12.50
2023-03-29T22:19:23.786Z,12.50
2023-03-29T22:21:51.294Z,12.63
2023-03-29T22:24:19.142Z,12.50
2023-03-29T22:26:45.933Z,12.50
2023-03-29T22:29:12.494Z,12.63
2023-03-29T22:31:39.453Z,12.56
2023-03-29T22:34:06.969Z,12.56
2023-03-29T22:36:33.684Z,12.50
2023-03-29T22:39:00.717Z,12.44
2023-03-29T22:41:28.243Z,12.44
2023-03-29T22:43:57.584Z,12.44
2023-03-29T22:46:25.115Z,12.63
2023-03-29T22:48:52.378Z,12.63
2023-03-29T22:51:20.308Z,12.75
2023-03-29T22:53:47.075Z,12.69
2023-03-29T22:56:15.443Z,12.88
2023-03-29T22:58:42.518Z,12.81
2023-03-29T23:01:09.537Z,12.88
2023-03-29T23:03:36.830Z,12.75
2023-03-29T23:06:04.027Z,12.75
2023-03-29T23:08:33.005Z,12.88
2023-03-29T23:11:00.592Z,12.94
2023-03-29T23:13:29.148Z,12.94
2023-03-29T23:16:00.955Z,13.06
2023-03-29T23:18:30.196Z,13.06
2023-03-29T23:20:58.206Z,13.00
2023-03-29T23:23:26.931Z,13.06
2023-03-29T23:25:55.443Z,13.06
2023-03-29T23:28:25.956Z,13.13
2023-03-29T23:31:03.240Z,13.06
2023-03-29T23:33:33.682Z,13.19
2023-03-29T23:36:03.642Z,13.13
2023-03-29T23:38:31.096Z,13.13
2023-03-29T23:41:00.802Z,13.13
2023-03-29T23:43:37.284Z,13.19
2023-03-29T23:46:06.155Z,13.25
2023-03-29T23:48:34.302Z,13.25
2023-03-29T23:51:02.759Z,13.25
2023-03-29T23:53:30.611Z,13.25
2023-03-29T23:56:02.064Z,13.31
2023-03-29T23:58:30.937Z,13.25
